Arrey, NM (87930)

1:08 PM MDT on August 28, 2016 (GMT -0600)
Truth Or Consequences Municipal | | Change Station
Active Advisory: Areal Flood Advisory

Elev 4859 ft 33.24 °N, 107.27 °W | Updated 3 minutes ago

Scattered Clouds
Scattered Clouds
74 °F
Feels Like 74 °F
N
13
Wind Variable Wind from NW

Today
High -- | Low -- °F
--% Chance of Precip.
Yesterday
High -- | Low -- °F
Precip. -- in
Pressure 30.21 in
Visibility 10.0 miles
Clouds Scattered Clouds 11000 ft
Dew Point 51 °F
Humidity 45%
Rainfall 0.00 in
Snow Depth Not available.
6:42 AM 7:38 PM
Waning Crescent, 14% visible
SPECI KTCS 281905Z AUTO 32011KT 10SM SCT110 23/11 A3021 RMK AO2 LTG DSNT SW-N T02330106
Pressure 30.21 in
Visibility 10.0 miles
Clouds Scattered Clouds 11000 ft
Dew Point 51 °F
Humidity 45%
Rainfall 0.00 in
Snow Depth Not available.
6:42 AM 7:38 PM
Waning Crescent, 14% visible
SPECI KTCS 281905Z AUTO 32011KT 10SM SCT110 23/11 A3021 RMK AO2 LTG DSNT SW-N T02330106

10-Day Weather Forecast

Almanac

Astronomy

Aug. 28, 2016 Rise Set
Actual Time
Civil Twilight
Nautical Twilight
Astronomical Twilight
Moon
Length of Visible Light
Length of Day
Tomorrow will be .
, % of the Moon is Illuminated

Today's Extremes

State Highs State Lows

Community

WunderPhotos

Upload Photos

1,935,660 photos uploaded!

WunderBlog® & News

Nearby

Air Quality

  Air Quality AQ Index Pollutant
Not available.

Snow Depth

Station Depth Elevation

Earthquake Activity

City Distance Mag. Time & Date
Minimum magnitude displayed is 2.5.

Coastal Water Temperatures

Place Temperature

Stations

Nearby Weather Stations

Station Location Temp. Windchill Dew Point Humidity Wind Precip. Elev Updated Type
                   

Watches & Warnings

Areal Flood Advisory
Issued: 12:44 PM MDT Aug. 28, 2016 – National Weather Service

The National Weather Service in El Paso has issued a

* Arroyo and Small Stream Flood Advisory for...
west central Sierra County in south central New Mexico...

* until 345 PM MDT

* at 1242 PM MDT... Doppler radar indicated heavy rain due to
thunderstorms. This will cause Arroyo and Small Stream flooding in
the advisory area. It will also cause flooding in the low water
crossings on Highway 27.

* Some locations that will experience flooding include...
Hillsboro...
Emory Pass...
and Kingston.

Precautionary/preparedness actions...

Turn around... don't drown when encountering flooded roads. Most flood
deaths occur in vehicles.

A Flood Advisory means river or stream flows are elevated... or
ponding of water in urban or other areas is occurring or is imminent.


Lat... Lon 3292 10754 3282 10752 3282 10775 3285 10776
      3292 10777 3293 10765


Crespo